Time;durP1;ratioP1;P1;durP2;ratioP2;P2;SDS_P1;SDS_P2;PMS_P1;PMS_P2;Temp;Humidity;BMP_temperature;BMP_pressure;BME280_temperature;BME280_humidity;BME280_pressure;Samples;Min_cycle;Max_cycle;Signal;HPM_P1;HPM_P2
2022/06/24 00:00:45;;;;;;;5.10;4.70;;;;;;;18.41;70.26;100053.16;2760548;85;20124;-87
2022/06/24 00:04:56;;;;;;;6.00;4.42;;;;;;;18.32;70.78;100043.49;2692840;86;21978;-85
2022/06/24 00:08:59;;;;;;;6.55;4.90;;;;;;;18.25;70.29;100044.73;2767732;85;21043;-87
2022/06/24 00:13:02;;;;;;;6.17;5.05;;;;;;;18.24;71.53;100046.24;2850766;82;21014;-87
2022/06/24 00:17:09;;;;;;;9.03;5.53;;;;;;;18.26;71.71;100041.51;2850689;82;21009;-87
2022/06/24 00:21:12;;;;;;;9.63;7.17;;;;;;;18.26;71.88;100046.40;2850303;83;21089;-87
2022/06/24 00:25:23;;;;;;;15.08;9.18;;;;;;;18.21;71.88;100046.61;2850802;82;21525;-87
2022/06/24 00:29:30;;;;;;;11.88;9.35;;;;;;;18.11;72.10;100047.72;2850792;82;21101;-86
2022/06/24 00:33:35;;;;;;;13.10;9.50;;;;;;;18.03;72.42;100037.00;2834484;83;21007;-87
2022/06/24 00:37:39;;;;;;;9.83;8.63;;;;;;;17.99;72.76;100040.55;2812001;83;21605;-87
2022/06/24 00:41:41;;;;;;;10.00;7.75;;;;;;;18.01;73.05;100041.70;2844585;83;21174;-87
2022/06/24 00:45:45;;;;;;;8.05;5.75;;;;;;;18.01;73.26;100034.16;2832956;83;21015;-86
2022/06/24 00:49:49;;;;;;;7.05;6.35;;;;;;;18.01;73.51;100026.90;2823178;82;21007;-87
2022/06/24 00:53:55;;;;;;;10.50;8.98;;;;;;;17.93;74.15;100029.14;2844973;83;21046;-88
2022/06/24 00:57:59;;;;;;;10.70;7.85;;;;;;;17.73;74.82;100036.02;2851055;83;21518;-88
2022/06/24 01:02:04;;;;;;;10.48;5.90;;;;;;;17.60;74.42;100034.78;2833000;83;20995;-87
2022/06/24 01:06:05;;;;;;;8.35;6.78;;;;;;;17.54;75.26;100030.95;2850184;83;21534;-87
2022/06/24 01:10:09;;;;;;;7.47;6.83;;;;;;;17.38;76.77;100024.32;2848664;82;21535;-88
2022/06/24 01:14:12;;;;;;;5.95;5.45;;;;;;;17.27;77.27;100016.97;2841793;83;21074;-87
2022/06/24 01:18:13;;;;;;;7.35;5.60;;;;;;;17.25;77.91;100029.75;2841890;83;21081;-87
2022/06/24 01:22:23;;;;;;;7.42;5.85;;;;;;;17.18;77.46;100023.42;2841849;83;21427;-87
2022/06/24 01:26:24;;;;;;;10.53;6.65;;;;;;;17.17;77.87;100021.75;2841913;83;21160;-86
2022/06/24 01:30:27;;;;;;;7.42;6.25;;;;;;;17.14;77.75;100019.41;2842340;83;21046;-87
2022/06/24 01:34:28;;;;;;;7.62;6.10;;;;;;;17.16;77.07;100018.73;2841806;83;21522;-87
2022/06/24 01:38:29;;;;;;;8.90;7.55;;;;;;;17.17;76.76;100021.75;2841672;83;21030;-88
2022/06/24 01:42:30;;;;;;;6.90;6.28;;;;;;;17.12;77.12;100025.47;2842050;83;21545;-87
2022/06/24 01:46:32;;;;;;;8.45;6.65;;;;;;;17.12;76.55;100029.50;2767950;83;20975;-87
2022/06/24 01:50:33;;;;;;;10.20;8.15;;;;;;;17.13;76.41;100021.25;2842216;83;21093;-87
2022/06/24 01:54:34;;;;;;;8.80;7.20;;;;;;;17.15;76.46;100015.71;2842121;83;21452;-87
2022/06/24 01:58:35;;;;;;;7.90;6.83;;;;;;;17.18;76.55;100011.81;2841967;83;21076;-88
2022/06/24 02:02:36;;;;;;;11.65;7.53;;;;;;;17.17;77.04;100016.37;2841800;83;21469;-86
2022/06/24 02:06:37;;;;;;;7.45;6.60;;;;;;;17.03;77.09;100013.92;2841920;83;20995;-88
2022/06/24 02:14:58;;;;;;;11.63;7.62;;;;;;;16.81;77.37;100005.59;2850102;82;21074;-87
2022/06/24 02:19:00;;;;;;;7.45;6.75;;;;;;;16.82;79.45;100005.06;2850433;82;21129;-88
2022/06/24 02:23:01;;;;;;;8.50;7.45;;;;;;;16.92;79.54;100005.71;2850136;82;21011;-88
2022/06/24 02:27:02;;;;;;;20.15;8.75;;;;;;;17.02;79.49;100003.34;2834126;83;21031;-87
2022/06/24 02:31:05;;;;;;;9.93;8.93;;;;;;;17.06;79.34;100000.13;2850877;83;20995;-88
2022/06/24 02:35:07;;;;;;;7.58;6.80;;;;;;;17.09;78.96;100002.95;2818745;83;21039;-87
2022/06/24 02:39:08;;;;;;;10.38;7.55;;;;;;;17.07;78.63;100000.95;2754537;85;21500;-86
2022/06/24 02:43:16;;;;;;;8.15;7.42;;;;;;;17.05;78.86;100000.30;2850671;82;21074;-87
2022/06/24 02:47:18;;;;;;;11.75;8.83;;;;;;;17.07;79.13;100000.95;2846693;82;21015;-87
2022/06/24 02:51:19;;;;;;;8.13;7.28;;;;;;;17.13;79.07;99996.24;2814661;82;21003;-87
2022/06/24 02:55:20;;;;;;;8.58;7.85;;;;;;;17.14;79.25;99995.23;2736728;86;21065;-88
2022/06/24 02:59:21;;;;;;;8.63;7.60;;;;;;;17.16;79.05;100000.41;2738441;86;20998;-86
2022/06/24 03:03:23;;;;;;;9.20;7.72;;;;;;;17.18;79.11;100007.78;2740521;86;21067;-87
2022/06/24 03:07:24;;;;;;;11.38;8.55;;;;;;;17.23;78.66;100012.14;2784203;85;21022;-86
2022/06/24 03:11:25;;;;;;;7.10;6.45;;;;;;;17.24;78.71;100014.64;2744559;84;21084;-88
2022/06/24 03:15:26;;;;;;;8.70;6.53;;;;;;;17.25;78.68;100016.84;2690980;86;21307;-85
2022/06/24 03:19:27;;;;;;;8.98;8.08;;;;;;;17.21;78.92;100023.06;2691723;86;21051;-87
2022/06/24 03:23:28;;;;;;;11.80;8.93;;;;;;;17.07;79.60;100015.24;2689239;87;21412;-88
2022/06/24 03:27:29;;;;;;;9.58;8.58;;;;;;;16.98;80.29;100011.75;2689792;87;21067;-88
2022/06/24 03:31:30;;;;;;;11.18;8.58;;;;;;;16.92;81.10;100009.74;2766385;85;21051;-87
2022/06/24 03:35:32;;;;;;;9.38;7.87;;;;;;;16.92;81.14;99999.48;2760778;86;21015;-88
2022/06/24 03:39:33;;;;;;;12.15;9.78;;;;;;;16.97;81.54;99998.45;2736203;86;21031;-88
2022/06/24 03:43:34;;;;;;;8.58;7.70;;;;;;;17.04;81.55;99998.63;2688480;88;21076;-87
2022/06/24 03:47:35;;;;;;;8.45;7.55;;;;;;;17.05;81.48;100001.64;2688698;87;21051;-88
2022/06/24 03:51:36;;;;;;;8.93;7.28;;;;;;;17.05;81.20;100001.64;2689024;88;21555;-88
2022/06/24 03:55:37;;;;;;;8.18;7.25;;;;;;;17.06;81.16;99993.41;2688557;87;21052;-87
2022/06/24 03:59:38;;;;;;;8.88;7.97;;;;;;;17.10;81.18;99980.47;2762038;85;21530;-87
2022/06/24 04:03:39;;;;;;;11.43;6.85;;;;;;;17.18;81.11;99979.56;2758294;86;21733;-88
2022/06/24 04:07:40;;;;;;;12.30;9.13;;;;;;;17.24;81.23;99979.70;2730502;85;21496;-88
2022/06/24 04:11:41;;;;;;;10.70;9.00;;;;;;;17.47;81.28;99980.75;2712424;86;21027;-87
2022/06/24 04:15:49;;;;;;;8.45;7.62;;;;;;;17.75;80.77;99983.73;2745665;85;21117;-88
2022/06/24 04:19:52;;;;;;;10.63;7.30;;;;;;;18.12;80.82;99985.28;2747178;85;21043;-88
2022/06/24 04:23:54;;;;;;;12.78;8.50;;;;;;;18.68;79.56;99987.58;2765262;85;37334;-87
2022/06/24 04:27:55;;;;;;;9.83;7.42;;;;;;;19.69;78.28;99984.67;2761122;85;21014;-88
2022/06/24 04:31:56;;;;;;;8.90;6.35;;;;;;;20.86;72.73;99984.82;2766892;85;21048;-87
2022/06/24 04:35:58;;;;;;;8.33;6.90;;;;;;;22.04;70.09;99980.09;2748801;85;21114;-86
2022/06/24 04:39:59;;;;;;;13.03;7.45;;;;;;;23.13;66.33;99977.94;2764234;85;21106;-87
2022/06/24 04:44:00;;;;;;;8.93;6.83;;;;;;;24.08;62.77;99985.26;2758440;84;21058;-88
2022/06/24 04:48:02;;;;;;;10.65;7.40;;;;;;;24.74;59.68;99975.28;2806524;83;21042;-88
2022/06/24 04:52:05;;;;;;;8.35;6.53;;;;;;;25.08;57.42;99973.52;2788993;83;21688;-88
2022/06/24 04:56:06;;;;;;;10.40;6.72;;;;;;;25.31;56.92;99972.80;2816439;83;21561;-87
2022/06/24 05:00:09;;;;;;;8.73;6.80;;;;;;;25.47;55.97;99974.56;2830240;83;21038;-88
2022/06/24 05:04:10;;;;;;;8.40;6.40;;;;;;;25.65;55.35;99973.68;2755483;84;21059;-87
2022/06/24 05:08:11;;;;;;;8.45;6.60;;;;;;;25.96;55.38;99977.17;2836183;81;21113;-87
2022/06/24 05:12:12;;;;;;;6.72;6.03;;;;;;;26.17;54.42;99966.78;2809331;82;21022;-87
2022/06/24 05:16:14;;;;;;;8.23;6.47;;;;;;;26.40;53.79;99967.83;2852064;83;20967;-88
2022/06/24 05:20:15;;;;;;;7.60;6.80;;;;;;;26.48;52.94;99961.99;2852246;82;21037;-88
2022/06/24 05:24:16;;;;;;;19.10;6.20;;;;;;;26.53;52.71;99962.13;2852447;82;21007;-87
2022/06/24 05:28:17;;;;;;;8.28;6.97;;;;;;;26.47;52.42;99952.16;2852427;82;20971;-87
2022/06/24 05:32:18;;;;;;;21.20;11.65;;;;;;;26.37;52.94;99945.43;2852563;82;21030;-88
2022/06/24 05:36:19;;;;;;;13.80;7.67;;;;;;;26.38;53.28;99953.90;2834991;83;21601;-88
2022/06/24 05:40:20;;;;;;;8.65;6.17;;;;;;;26.27;53.25;99964.27;2834760;83;21058;-87
2022/06/24 05:44:21;;;;;;;9.10;7.03;;;;;;;26.21;53.67;99961.14;2852492;82;21502;-87
2022/06/24 05:48:22;;;;;;;8.50;5.97;;;;;;;26.41;53.36;99955.84;2851117;82;21526;-88
2022/06/24 05:56:43;;;;;;;10.13;5.90;;;;;;;26.66;52.82;99943.30;2853117;83;21038;-87
2022/06/24 06:00:44;;;;;;;6.65;5.67;;;;;;;26.98;51.58;99933.30;2852937;82;20995;-86
2022/06/24 06:04:45;;;;;;;7.10;5.33;;;;;;;27.04;51.86;99943.25;2829632;82;21046;-86
2022/06/24 06:08:46;;;;;;;6.95;6.10;;;;;;;27.30;52.16;99938.78;2809433;83;21077;-86
2022/06/24 06:12:47;;;;;;;9.70;5.60;;;;;;;27.49;50.92;99930.65;2809268;83;21114;-87
2022/06/24 06:16:48;;;;;;;11.97;6.55;;;;;;;27.54;50.14;99935.96;2801033;83;21184;-88
2022/06/24 06:20:49;;;;;;;8.05;5.35;;;;;;;27.64;50.07;99933.38;2748652;85;21023;-89
2022/06/24 06:24:51;;;;;;;8.65;4.60;;;;;;;27.83;49.59;99938.59;2714434;85;21043;-89
2022/06/24 06:28:53;;;;;;;15.32;9.93;;;;;;;27.93;49.58;99927.84;2760553;85;20996;-88
2022/06/24 06:32:54;;;;;;;9.53;5.75;;;;;;;27.85;48.87;99933.18;2752705;84;21069;-89
2022/06/24 06:36:55;;;;;;;7.58;4.22;;;;;;;28.06;48.85;99924.73;2751178;84;21071;-90
2022/06/24 06:40:57;;;;;;;7.37;4.25;;;;;;;28.05;48.24;99920.34;2705814;85;21070;-93
2022/06/24 06:45:00;;;;;;;12.23;5.12;;;;;;;28.03;47.45;99920.33;2742667;84;21001;-86
2022/06/24 06:49:01;;;;;;;8.50;4.05;;;;;;;28.16;47.87;99904.94;2747797;84;21119;-89
2022/06/24 06:53:03;;;;;;;7.45;3.95;;;;;;;28.21;46.55;99911.02;2746590;84;21067;-89
2022/06/24 06:57:05;;;;;;;6.97;4.87;;;;;;;28.11;46.78;99897.20;2720547;84;20986;-88
2022/06/24 07:01:06;;;;;;;11.85;3.83;;;;;;;28.15;47.48;99896.98;2757900;85;21083;-89
2022/06/24 07:05:07;;;;;;;10.48;4.28;;;;;;;28.33;46.94;99893.97;2745741;85;21000;-88
2022/06/24 07:09:10;;;;;;;5.55;3.55;;;;;;;28.51;45.91;99892.00;2741322;84;21033;-87
2022/06/24 07:13:12;;;;;;;6.72;4.33;;;;;;;28.56;46.23;99880.27;2706548;85;21048;-87
2022/06/24 07:17:15;;;;;;;9.70;4.37;;;;;;;28.45;45.99;99870.59;2754874;84;21051;-85
2022/06/24 07:21:16;;;;;;;6.58;5.37;;;;;;;28.45;45.99;99870.59;2759457;85;21012;-85
2022/06/24 07:25:17;;;;;;;5.55;3.98;;;;;;;28.83;45.63;99873.48;2712357;85;21024;-86
2022/06/24 07:29:18;;;;;;;14.03;3.90;;;;;;;29.08;45.26;99859.76;2755930;85;21031;-86
2022/06/24 07:33:21;;;;;;;6.05;5.05;;;;;;;29.08;45.26;99859.76;2743437;85;21007;-88
2022/06/24 07:37:22;;;;;;;7.22;4.58;;;;;;;29.42;45.13;99855.42;2754402;85;21060;-87
2022/06/24 07:41:23;;;;;;;7.55;3.45;;;;;;;29.55;44.97;99852.77;2755426;85;21040;-87
2022/06/24 07:45:24;;;;;;;11.20;4.22;;;;;;;29.72;44.50;99855.37;2738333;86;21562;-86
2022/06/24 07:49:25;;;;;;;4.03;3.55;;;;;;;29.76;43.60;99848.80;2757704;85;21020;-87
2022/06/24 07:53:27;;;;;;;6.12;3.17;;;;;;;29.81;43.92;99845.27;2753993;85;21047;-86
2022/06/24 07:57:28;;;;;;;5.65;3.17;;;;;;;29.89;44.42;99842.84;2677483;85;21034;-85
2022/06/24 08:01:29;;;;;;;11.22;4.15;;;;;;;29.92;43.59;99838.20;2727801;85;21049;-85
2022/06/24 08:05:31;;;;;;;4.78;2.87;;;;;;;30.05;43.71;99834.17;2764219;85;21078;-85
2022/06/24 08:09:32;;;;;;;5.12;3.15;;;;;;;30.27;44.07;99822.75;2744063;85;21046;-84
2022/06/24 08:13:34;;;;;;;10.95;3.00;;;;;;;30.27;43.53;99830.45;2767915;85;21036;-85
2022/06/24 08:17:35;;;;;;;4.80;2.83;;;;;;;30.44;42.67;99818.41;2725007;85;21024;-85
2022/06/24 08:21:36;;;;;;;12.40;4.30;;;;;;;30.47;43.45;99826.13;2771307;85;20988;-84
2022/06/24 08:25:37;;;;;;;5.35;2.92;;;;;;;30.70;43.87;99824.00;2771619;85;21023;-85
2022/06/24 08:29:38;;;;;;;8.80;3.45;;;;;;;30.81;43.11;99820.16;2771696;85;21087;-84
2022/06/24 08:33:40;;;;;;;2.90;2.60;;;;;;;30.71;43.17;99818.79;2768968;85;21381;-86
2022/06/24 08:37:41;;;;;;;13.30;2.90;;;;;;;30.64;43.01;99808.07;2705527;85;20996;-85
2022/06/24 08:41:46;;;;;;;6.47;3.55;;;;;;;30.73;42.27;99809.73;2743997;84;21069;-85
2022/06/24 08:45:51;;;;;;;19.50;5.75;;;;;;;30.90;41.96;99811.67;2770731;85;21027;-87
2022/06/24 08:49:53;;;;;;;51.00;10.98;;;;;;;31.12;42.11;99802.33;2770873;86;21158;-87
2022/06/24 08:54:01;;;;;;;3.67;2.30;;;;;;;31.27;41.62;99804.27;2746870;84;21043;-86
2022/06/24 08:57:59;;;;;;;;;;;;;;;31.36;41.77;99797.67;2770801;84;21055;-87
2022/06/24 09:02:00;;;;;;;5.17;2.60;;;;;;;31.36;42.38;99793.55;2721170;84;20127;-87
2022/06/24 09:06:14;;;;;;;2.60;2.40;;;;;;;31.45;42.74;99794.64;2758370;84;21495;-86
2022/06/24 09:10:15;;;;;;;2.67;2.22;;;;;;;31.59;41.98;99782.52;2771452;86;21016;-86
2022/06/24 09:14:17;;;;;;;10.58;3.20;;;;;;;31.78;41.89;99779.19;2761465;84;21124;-87
2022/06/24 09:18:24;;;;;;;65.85;14.03;;;;;;;31.81;41.52;99777.78;2764005;85;21032;-87
2022/06/24 09:22:25;;;;;;;3.47;2.12;;;;;;;31.95;42.37;99776.66;2757762;84;21025;-86
2022/06/24 09:26:42;;;;;;;3.33;2.25;;;;;;;32.04;40.83;99768.91;2746587;85;21120;-87
2022/06/24 09:30:43;;;;;;;5.55;3.30;;;;;;;32.29;42.65;99772.63;2685851;87;21024;-86
2022/06/24 09:35:07;;;;;;;5.22;2.02;;;;;;;32.28;39.75;99764.10;2742260;85;21066;-86
2022/06/24 09:39:14;;;;;;;3.83;3.50;;;;;;;32.16;39.84;99763.61;2724206;85;21024;-86
2022/06/24 09:43:15;;;;;;;4.37;3.02;;;;;;;31.89;40.41;99774.47;2749911;85;21027;-87
2022/06/24 09:47:21;;;;;;;8.95;3.40;;;;;;;31.94;41.33;99769.52;2689944;87;21074;-87
2022/06/24 09:51:23;;;;;;;2.92;2.72;;;;;;;32.07;41.46;99757.07;2742287;85;21067;-85
2022/06/24 09:55:25;;;;;;;3.45;2.80;;;;;;;31.97;41.35;99753.25;2671251;87;21349;-87
2022/06/24 10:03:49;;;;;;;5.60;2.87;;;;;;;31.79;40.62;99762.13;2763005;85;21035;-86
2022/06/24 10:07:51;;;;;;;4.03;2.37;;;;;;;31.68;40.62;99746.19;2739399;85;21023;-87
2022/06/24 10:11:56;;;;;;;5.58;2.95;;;;;;;31.62;41.80;99750.88;2749574;85;20968;-87
2022/06/24 10:16:03;;;;;;;9.98;4.17;;;;;;;31.75;41.29;99739.30;2771187;84;21126;-91
2022/06/24 10:20:07;;;;;;;5.55;2.50;;;;;;;31.70;40.45;99742.07;2780128;85;21112;-87
2022/06/24 10:24:16;;;;;;;4.33;2.87;;;;;;;31.88;41.24;99728.84;2779096;85;21042;-87
2022/06/24 10:28:17;;;;;;;2.75;1.95;;;;;;;31.71;40.32;99739.59;2778637;85;21047;-86
2022/06/24 10:32:18;;;;;;;3.35;2.45;;;;;;;31.75;40.38;99727.49;2779029;85;20992;-87
2022/06/24 10:36:31;;;;;;;4.92;2.12;;;;;;;31.85;40.45;99719.78;2783101;83;21002;-87
2022/06/24 10:40:32;;;;;;;3.35;1.72;;;;;;;32.00;40.41;99715.55;2765653;84;21055;-87
2022/06/24 10:44:38;;;;;;;7.30;3.05;;;;;;;32.02;38.36;99705.66;2765999;85;21038;-89
2022/06/24 10:48:56;;;;;;;3.33;2.00;;;;;;;31.87;39.27;99706.00;2740456;84;21090;-89
2022/06/24 10:53:02;;;;;;;7.28;2.58;;;;;;;31.82;39.28;99714.28;2732081;85;21043;-85
2022/06/24 10:57:03;;;;;;;10.70;1.65;;;;;;;31.70;38.34;99711.84;2778680;85;21016;-87
2022/06/24 11:01:06;;;;;;;2.95;2.20;;;;;;;31.72;39.03;99700.54;2762695;84;21092;-88
2022/06/24 11:05:27;;;;;;;2.83;2.37;;;;;;;31.69;39.91;99690.95;2777733;85;21063;-93
2022/06/24 11:09:29;;;;;;;6.53;2.37;;;;;;;31.58;38.29;99694.84;2777040;85;21570;-92
2022/06/24 11:13:30;;;;;;;6.25;2.70;;;;;;;31.44;39.58;99698.17;2732548;86;21559;-86
2022/06/24 11:17:31;;;;;;;3.42;2.45;;;;;;;31.53;39.78;99697.61;2771629;84;21642;-86
2022/06/24 11:21:37;;;;;;;3.02;2.17;;;;;;;31.63;39.13;99693.43;2693163;84;21158;-88
2022/06/24 11:25:43;;;;;;;2.65;2.02;;;;;;;31.61;40.30;99686.02;2689485;87;21031;-84
2022/06/24 11:29:54;;;;;;;3.45;2.47;;;;;;;31.58;40.74;99687.42;2766433;85;21035;-85
2022/06/24 11:34:04;;;;;;;4.03;2.72;;;;;;;31.51;39.90;99683.33;2693083;87;21456;-85
2022/06/24 11:38:08;;;;;;;5.60;2.50;;;;;;;31.55;41.28;99681.13;2688410;87;21040;-84
2022/06/24 11:42:09;;;;;;;4.80;2.80;;;;;;;31.68;40.34;99669.23;2751887;84;21093;-84
2022/06/24 11:46:10;;;;;;;6.53;2.30;;;;;;;31.94;40.09;99658.14;2755182;84;21713;-85
2022/06/24 11:50:21;;;;;;;4.58;2.47;;;;;;;32.09;39.66;99654.47;2768172;84;21122;-84
2022/06/24 11:54:29;;;;;;;17.02;4.05;;;;;;;32.18;39.82;99654.11;2761294;84;20986;-84
2022/06/24 11:58:35;;;;;;;2.77;2.25;;;;;;;32.05;39.76;99653.67;2769646;84;21039;-84
2022/06/24 12:02:36;;;;;;;5.20;2.15;;;;;;;31.80;39.57;99645.55;2762931;85;21039;-84
2022/06/24 12:06:40;;;;;;;3.75;2.37;;;;;;;31.94;39.89;99640.27;2756377;84;21095;-83
2022/06/24 12:10:53;;;;;;;5.22;2.45;;;;;;;31.98;40.00;99629.77;2766921;84;20997;-84
2022/06/24 12:14:55;;;;;;;4.65;2.58;;;;;;;32.05;41.50;99627.54;2779902;83;20996;-85
2022/06/24 12:19:02;;;;;;;3.72;2.85;;;;;;;32.07;40.71;99616.23;2792975;83;21137;-85
2022/06/24 12:23:21;;;;;;;3.10;2.33;;;;;;;32.09;40.30;99607.70;2746898;84;20993;-85
2022/06/24 12:27:35;;;;;;;7.75;3.37;;;;;;;32.29;40.47;99616.34;2742994;85;21042;-85
2022/06/24 12:31:38;;;;;;;3.60;2.35;;;;;;;32.42;41.53;99607.45;2729642;86;21582;-85
2022/06/24 12:35:40;;;;;;;5.58;2.22;;;;;;;32.58;39.88;99605.95;2729305;84;21001;-84
2022/06/24 12:39:47;;;;;;;4.15;2.70;;;;;;;32.82;38.42;99601.02;2740990;84;21021;-85
2022/06/24 12:44:01;;;;;;;3.47;2.33;;;;;;;32.90;39.95;99594.34;2802235;83;20980;-84
2022/06/24 12:52:47;;;;;;;3.02;2.30;;;;;;;32.80;39.30;99579.27;2808495;83;21157;-83
2022/06/24 12:56:48;;;;;;;2.98;2.45;;;;;;;32.74;39.40;99559.80;2802233;83;21039;-83
2022/06/24 13:00:49;;;;;;;3.72;2.20;;;;;;;32.95;39.67;99560.43;2809634;82;21035;-83
2022/06/24 13:04:50;;;;;;;3.75;2.20;;;;;;;32.91;39.84;99560.73;2751210;83;21045;-83
2022/06/24 13:08:51;;;;;;;6.15;2.17;;;;;;;32.97;42.19;99557.36;2763101;84;21045;-84
2022/06/24 13:12:53;;;;;;;4.37;2.12;;;;;;;32.76;40.19;99564.45;2727393;84;21040;-85
2022/06/24 13:16:54;;;;;;;2.95;2.25;;;;;;;32.54;40.93;99573.23;2755610;84;21116;-85
2022/06/24 13:20:55;;;;;;;3.33;2.08;;;;;;;32.34;41.60;99563.50;2709820;86;21110;-84
2022/06/24 13:24:56;;;;;;;5.30;2.08;;;;;;;32.20;41.55;99563.86;2702266;86;21051;-84
2022/06/24 13:28:57;;;;;;;3.98;3.10;;;;;;;31.87;41.95;99556.16;2766411;85;21122;-84
2022/06/24 13:32:59;;;;;;;7.80;2.47;;;;;;;31.69;42.66;99554.89;2749461;85;21000;-85
2022/06/24 13:37:00;;;;;;;3.55;2.30;;;;;;;31.75;43.15;99546.87;2767789;85;21023;-85
2022/06/24 13:41:01;;;;;;;4.95;2.87;;;;;;;31.87;43.10;99548.48;2710077;86;21126;-85
2022/06/24 13:45:03;;;;;;;5.40;2.22;;;;;;;31.77;42.21;99539.19;2710172;86;21019;-85
2022/06/24 13:49:04;;;;;;;4.00;1.65;;;;;;;31.74;41.95;99541.10;2710068;86;21594;-86
2022/06/24 13:53:06;;;;;;;2.90;2.08;;;;;;;31.69;41.01;99538.40;2751246;85;21031;-86
2022/06/24 13:57:09;;;;;;;2.15;2.05;;;;;;;31.65;41.02;99538.70;2767810;86;20993;-85
2022/06/24 14:01:10;;;;;;;3.85;2.25;;;;;;;31.43;40.74;99534.42;2710027;86;23385;-86
2022/06/24 14:05:11;;;;;;;3.35;2.15;;;;;;;31.44;41.95;99533.31;2710338;86;21055;-86
2022/06/24 14:09:12;;;;;;;7.95;2.55;;;;;;;31.73;42.78;99527.09;2767881;85;21012;-86
2022/06/24 14:13:14;;;;;;;13.62;2.70;;;;;;;31.90;41.29;99539.08;2707973;87;21059;-86
2022/06/24 14:17:15;;;;;;;3.27;2.12;;;;;;;31.92;41.69;99529.18;2693243;88;20996;-86
2022/06/24 14:21:16;;;;;;;5.28;2.27;;;;;;;31.99;41.55;99529.66;2644462;88;21032;-85
2022/06/24 14:25:17;;;;;;;7.87;2.77;;;;;;;32.13;41.62;99524.34;2693869;87;21099;-86
2022/06/24 14:29:18;;;;;;;4.37;1.90;;;;;;;32.41;40.44;99518.30;2771287;86;21043;-85
2022/06/24 14:33:19;;;;;;;5.25;1.85;;;;;;;32.39;40.22;99494.39;2693107;87;21071;-84
2022/06/24 14:41:40;;;;;;;1.80;1.70;;;;;;;32.48;39.79;99485.20;2693434;88;21055;-86
2022/06/24 14:45:41;;;;;;;5.30;2.22;;;;;;;32.50;40.11;99479.96;2719521;85;21035;-86
2022/06/24 14:49:42;;;;;;;6.85;2.40;;;;;;;32.39;40.68;99487.52;2770644;86;21036;-86
2022/06/24 14:53:43;;;;;;;8.65;3.10;;;;;;;32.20;40.63;99477.22;2771272;86;21020;-86
2022/06/24 14:57:44;;;;;;;4.42;2.22;;;;;;;32.09;41.48;99477.07;2771343;86;21051;-85
2022/06/24 15:01:45;;;;;;;11.22;3.33;;;;;;;32.07;41.72;99455.91;2770862;86;21553;-86
2022/06/24 15:05:46;;;;;;;3.90;2.25;;;;;;;31.99;42.47;99449.92;2771087;86;21063;-85
2022/06/24 15:09:47;;;;;;;2.20;1.62;;;;;;;32.16;42.08;99450.03;2693484;88;21446;-86
2022/06/24 15:13:49;;;;;;;2.62;1.72;;;;;;;32.18;41.49;99447.27;2695660;86;21047;-86
2022/06/24 15:17:50;;;;;;;8.60;1.92;;;;;;;32.33;41.63;99442.17;2767231;85;21079;-85
2022/06/24 15:21:51;;;;;;;5.12;2.02;;;;;;;32.46;40.56;99434.34;2691783;86;21051;-85
2022/06/24 15:25:52;;;;;;;19.42;4.25;;;;;;;32.54;40.58;99440.56;2706454;87;21379;-86
2022/06/24 15:29:53;;;;;;;10.10;3.55;;;;;;;32.54;39.90;99448.02;2758739;85;21051;-86
2022/06/24 15:33:54;;;;;;;2.50;1.67;;;;;;;32.45;40.16;99450.59;2782179;85;21031;-85
2022/06/24 15:37:56;;;;;;;3.47;2.30;;;;;;;32.51;40.27;99449.41;2783688;85;21019;-86
2022/06/24 15:41:58;;;;;;;5.85;2.35;;;;;;;32.68;40.22;99448.92;2783691;85;21701;-85
2022/06/24 15:46:00;;;;;;;5.15;2.00;;;;;;;32.84;40.13;99456.98;2783836;85;21206;-86
2022/06/24 15:50:04;;;;;;;6.45;2.85;;;;;;;32.72;39.72;99454.13;2707353;87;21047;-86
2022/06/24 15:54:06;;;;;;;5.20;1.98;;;;;;;32.65;39.80;99444.58;2711956;87;21063;-86
2022/06/24 15:58:07;;;;;;;4.90;1.80;;;;;;;32.59;40.88;99454.83;2707508;86;21027;-86
2022/06/24 16:02:08;;;;;;;3.27;2.15;;;;;;;32.52;40.40;99460.68;2707073;87;21075;-86
2022/06/24 16:06:10;;;;;;;4.72;2.33;;;;;;;32.23;41.03;99467.03;2735576;85;21050;-87
2022/06/24 16:10:11;;;;;;;3.95;2.47;;;;;;;31.79;41.63;99467.97;2783429;85;21015;-85
2022/06/24 16:14:12;;;;;;;4.00;2.15;;;;;;;31.54;41.77;99469.80;2703735;86;21082;-85
2022/06/24 16:18:13;;;;;;;3.17;2.55;;;;;;;31.29;42.03;99471.62;2770965;85;21051;-86
2022/06/24 16:22:14;;;;;;;14.30;3.92;;;;;;;31.09;42.30;99465.65;2693303;88;21067;-86
2022/06/24 16:30:35;;;;;;;3.10;2.12;;;;;;;30.91;42.73;99466.56;2692467;87;21032;-85
2022/06/24 16:34:36;;;;;;;5.15;2.00;;;;;;;30.83;43.59;99465.22;2770676;86;21015;-85
2022/06/24 16:38:41;;;;;;;4.17;1.95;;;;;;;30.82;43.68;99456.72;2771130;86;21032;-86
2022/06/24 16:43:15;;;;;;;;;;;;;;;30.77;43.52;99459.49;2773705;86;21018;-86
2022/06/24 16:46:45;;;;;;;7.83;2.08;;;;;;;30.66;43.53;99459.25;2770479;85;20127;-86
2022/06/24 16:50:47;;;;;;;5.55;1.57;;;;;;;30.55;43.59;99457.90;2769845;86;21015;-85
2022/06/24 16:54:48;;;;;;;4.00;1.80;;;;;;;30.53;43.75;99457.36;2770748;86;21078;-85
2022/06/24 16:58:49;;;;;;;2.62;1.90;;;;;;;30.49;43.75;99454.34;2692728;88;21016;-86
2022/06/24 17:02:51;;;;;;;3.50;2.00;;;;;;;30.42;44.52;99463.97;2673463;88;21135;-85
2022/06/24 17:06:52;;;;;;;3.27;2.25;;;;;;;30.31;43.73;99464.02;2770599;86;21055;-85
2022/06/24 17:10:53;;;;;;;2.25;2.05;;;;;;;30.11;44.32;99458.00;2770471;86;21028;-86
2022/06/24 17:14:54;;;;;;;2.47;1.72;;;;;;;29.98;44.56;99462.11;2782469;84;21288;-85
2022/06/24 17:18:56;;;;;;;2.80;2.20;;;;;;;29.86;44.72;99469.78;2814334;83;20999;-84
2022/06/24 17:22:57;;;;;;;2.90;1.77;;;;;;;29.71;45.01;99468.70;2815301;83;21977;-86
2022/06/24 17:26:58;;;;;;;2.15;1.95;;;;;;;29.62;45.29;99472.53;2837960;81;21042;-86
2022/06/24 17:30:59;;;;;;;2.22;2.02;;;;;;;29.50;45.65;99468.69;2752678;85;21460;-86
2022/06/24 17:35:02;;;;;;;2.72;1.75;;;;;;;29.40;45.94;99462.34;2753578;85;21015;-86
2022/06/24 17:39:04;;;;;;;3.65;2.08;;;;;;;29.34;46.00;99460.14;2830396;83;21002;-85
2022/06/24 17:43:06;;;;;;;3.37;2.98;;;;;;;29.28;46.22;99456.56;2766131;83;21069;-85
2022/06/24 17:47:07;;;;;;;3.70;2.80;;;;;;;29.24;46.32;99461.47;2810770;83;21034;-86
2022/06/24 17:51:09;;;;;;;2.95;1.90;;;;;;;29.20;46.49;99459.84;2770277;83;21717;-85
2022/06/24 17:55:10;;;;;;;4.75;1.75;;;;;;;29.16;46.65;99455.98;2814735;83;21030;-85
2022/06/24 17:59:11;;;;;;;2.02;1.65;;;;;;;29.14;46.68;99462.27;2753147;85;21045;-84
2022/06/24 18:03:13;;;;;;;3.83;3.12;;;;;;;29.11;46.78;99460.08;2755634;85;21609;-86
2022/06/24 18:07:14;;;;;;;9.30;2.52;;;;;;;29.07;46.83;99459.78;2717566;84;21038;-83
2022/06/24 18:11:15;;;;;;;2.58;2.05;;;;;;;29.04;46.78;99468.02;2752423;85;21035;-84
2022/06/24 18:15:17;;;;;;;3.95;2.27;;;;;;;29.00;47.08;99467.44;2751730;85;21106;-83
2022/06/24 18:19:18;;;;;;;5.12;2.55;;;;;;;28.93;47.60;99470.42;2733527;86;21013;-83
2022/06/24 18:23:19;;;;;;;5.62;2.15;;;;;;;28.82;48.00;99470.93;2675405;86;21038;-84
2022/06/24 18:27:20;;;;;;;8.20;3.00;;;;;;;28.70;48.41;99471.69;2706196;86;21089;-84
2022/06/24 18:31:21;;;;;;;7.40;4.53;;;;;;;28.60;48.63;99480.66;2756577;85;21111;-83
2022/06/24 18:35:22;;;;;;;10.75;6.08;;;;;;;28.47;49.18;99481.41;2739129;85;21054;-84
2022/06/24 18:39:23;;;;;;;8.00;4.78;;;;;;;28.33;49.71;99485.69;2731496;86;21010;-84
2022/06/24 18:43:24;;;;;;;6.47;4.12;;;;;;;28.21;50.12;99484.52;2757365;84;21064;-85
2022/06/24 18:47:27;;;;;;;11.25;4.03;;;;;;;28.13;50.46;99483.06;2754685;84;21021;-85
2022/06/24 18:51:28;;;;;;;8.05;4.30;;;;;;;28.06;50.67;99479.75;2756012;86;21019;-85
2022/06/24 18:55:29;;;;;;;6.37;4.30;;;;;;;28.02;50.68;99482.17;2764030;85;21042;-84
2022/06/24 18:59:30;;;;;;;4.85;3.25;;;;;;;27.97;51.18;99486.23;2684402;86;21269;-83
2022/06/24 19:03:31;;;;;;;7.53;3.22;;;;;;;27.89;51.24;99487.54;2768751;85;21046;-83
2022/06/24 19:07:33;;;;;;;6.25;3.20;;;;;;;27.83;51.67;99490.48;2769454;83;21041;-84
2022/06/24 19:11:35;;;;;;;9.35;3.70;;;;;;;27.69;52.10;99491.46;2802146;83;21078;-85
2022/06/24 19:15:36;;;;;;;5.58;4.83;;;;;;;27.54;52.49;99489.42;2802935;83;21067;-84
2022/06/24 19:19:40;;;;;;;8.13;3.45;;;;;;;27.54;53.10;99512.63;2702284;85;21031;-84
2022/06/24 19:23:41;;;;;;;3.65;3.12;;;;;;;27.54;53.10;99512.63;2780599;85;21076;-84